Dexterville, Wisconsin
Current Conditions -  °F | °C
As of 6:04 AM on Thursday 29 Jan 2015 (Local Time) from KMFI Reporting Station
Haze Haze  
Wind Chill: 17°   Ceiling: 500
Heat Index: 28°   Visibility: 3mi
Dew Point: 25°   Wind: 15mph
Humidity: 88%   Direction: 320°NW
Pressure: 29.84"   Gusts: NA
Location:  44.4101°N, 90.2968°W
Report Text: KMFI 291204Z AUTO 32013KT 3SM BR OVC005 M02/M04 A2984 RMK AO2 T10221039
Loading
Personal Weather Stations






























Interactive Weather Map New forecast layout! Learn more

10-Day Weather Forecast

Advertisements
Track Severe Weather on mobile